sensor_id;sensor_type;location;lat;lon;timestamp;pressure;altitude;pressure_sealevel;temperature;humidity
78573;BME280;67862;0.000;0.000;2024-01-30T00:01:52;101349.41;;;22.28;55.10
78573;BME280;67862;0.000;0.000;2024-01-30T00:04:17;101349.41;;;22.28;54.88
78573;BME280;67862;0.000;0.000;2024-01-30T00:06:46;101354.03;;;22.27;54.92
78573;BME280;67862;0.000;0.000;2024-01-30T00:09:11;101349.41;;;22.28;55.09
78573;BME280;67862;0.000;0.000;2024-01-30T00:11:37;101349.41;;;22.28;55.16
78573;BME280;67862;0.000;0.000;2024-01-30T00:14:03;101354.88;;;22.28;54.97
78573;BME280;67862;0.000;0.000;2024-01-30T00:16:28;101355.69;;;22.28;55.22
78573;BME280;67862;0.000;0.000;2024-01-30T00:18:54;101351.06;;;22.29;55.14
78573;BME280;67862;0.000;0.000;2024-01-30T00:21:20;101355.69;;;22.28;55.22
78573;BME280;67862;0.000;0.000;2024-01-30T00:23:45;101357.38;;;22.30;55.63
78573;BME280;67862;0.000;0.000;2024-01-30T00:26:10;101353.56;;;22.31;55.94
78573;BME280;67862;0.000;0.000;2024-01-30T00:28:37;101360.44;;;22.33;56.14
78573;BME280;67862;0.000;0.000;2024-01-30T00:31:02;101355.56;;;22.35;56.14
78573;BME280;67862;0.000;0.000;2024-01-30T00:33:28;101355.56;;;22.35;55.79
78573;BME280;67862;0.000;0.000;2024-01-30T00:35:53;101353.41;;;22.37;55.76
78573;BME280;67862;0.000;0.000;2024-01-30T00:38:18;101355.31;;;22.37;55.60
78573;BME280;67862;0.000;0.000;2024-01-30T00:40:44;101357.81;;;22.38;56.00
78573;BME280;67862;0.000;0.000;2024-01-30T00:43:09;101351.28;;;22.39;55.91
78573;BME280;67862;0.000;0.000;2024-01-30T00:45:34;101363.06;;;22.40;55.66
78573;BME280;67862;0.000;0.000;2024-01-30T00:48:00;101365.53;;;22.41;55.84
78573;BME280;67862;0.000;0.000;2024-01-30T00:50:25;101362.81;;;22.41;55.59
78573;BME280;67862;0.000;0.000;2024-01-30T00:52:51;101361.72;;;22.42;55.67
78573;BME280;67862;0.000;0.000;2024-01-30T00:55:16;101359.81;;;22.43;55.57
78573;BME280;67862;0.000;0.000;2024-01-30T00:57:41;101360.66;;;22.43;55.51
78573;BME280;67862;0.000;0.000;2024-01-30T01:00:07;101351.34;;;22.44;55.61
78573;BME280;67862;0.000;0.000;2024-01-30T01:02:37;101360.41;;;22.45;55.96
78573;BME280;67862;0.000;0.000;2024-01-30T01:05:02;101359.56;;;22.44;56.09
78573;BME280;67862;0.000;0.000;2024-01-30T01:07:28;101359.56;;;22.44;55.70
78573;BME280;67862;0.000;0.000;2024-01-30T01:09:53;101351.34;;;22.44;55.74
78573;BME280;67862;0.000;0.000;2024-01-30T01:12:19;101352.19;;;22.45;55.69
78573;BME280;67862;0.000;0.000;2024-01-30T01:14:44;101361.22;;;22.45;55.55
78573;BME280;67862;0.000;0.000;2024-01-30T01:17:10;101350.28;;;22.45;55.71
78573;BME280;67862;0.000;0.000;2024-01-30T01:19:35;101353.59;;;22.47;56.08
78573;BME280;67862;0.000;0.000;2024-01-30T01:22:00;101360.50;;;22.50;55.81
78573;BME280;67862;0.000;0.000;2024-01-30T01:24:26;101360.25;;;22.51;55.37
78573;BME280;67862;0.000;0.000;2024-01-30T01:26:51;101351.81;;;22.53;55.49
78573;BME280;67862;0.000;0.000;2024-01-30T01:29:16;101358.09;;;22.53;55.38
78573;BME280;67862;0.000;0.000;2024-01-30T01:31:42;101350.97;;;22.52;55.49
78573;BME280;67862;0.000;0.000;2024-01-30T01:34:12;101350.16;;;22.52;55.47
78573;BME280;67862;0.000;0.000;2024-01-30T01:36:37;101350.97;;;22.52;55.56
78573;BME280;67862;0.000;0.000;2024-01-30T01:39:03;101343.84;;;22.51;55.04
78573;BME280;67862;0.000;0.000;2024-01-30T01:41:32;101345.50;;;22.52;55.20
78573;BME280;67862;0.000;0.000;2024-01-30T01:43:58;101346.31;;;22.53;55.38
78573;BME280;67862;0.000;0.000;2024-01-30T01:46:26;101341.69;;;22.53;55.35
78573;BME280;67862;0.000;0.000;2024-01-30T01:48:51;101347.72;;;22.55;55.06
78573;BME280;67862;0.000;0.000;2024-01-30T01:51:17;101343.66;;;22.58;55.68
78573;BME280;67862;0.000;0.000;2024-01-30T01:53:42;101340.94;;;22.58;55.24
78573;BME280;67862;0.000;0.000;2024-01-30T01:56:07;101340.72;;;22.60;55.19
78573;BME280;67862;0.000;0.000;2024-01-30T01:58:33;101340.72;;;22.60;54.97
78573;BME280;67862;0.000;0.000;2024-01-30T02:00:59;101341.53;;;22.60;54.92
78573;BME280;67862;0.000;0.000;2024-01-30T02:03:24;101333.31;;;22.60;54.72
78573;BME280;67862;0.000;0.000;2024-01-30T02:05:52;101342.38;;;22.61;54.82
78573;BME280;67862;0.000;0.000;2024-01-30T02:08:18;101332.25;;;22.61;55.20
78573;BME280;67862;0.000;0.000;2024-01-30T02:10:44;101333.06;;;22.62;54.90
78573;BME280;67862;0.000;0.000;2024-01-30T02:13:09;101333.06;;;22.62;54.77
78573;BME280;67862;0.000;0.000;2024-01-30T02:15:34;101333.06;;;22.62;54.60
78573;BME280;67862;0.000;0.000;2024-01-30T02:18:00;101334.72;;;22.63;54.51
78573;BME280;67862;0.000;0.000;2024-01-30T02:20:25;101339.38;;;22.62;54.54
78573;BME280;67862;0.000;0.000;2024-01-30T02:22:53;101338.53;;;22.62;54.67
78573;BME280;67862;0.000;0.000;2024-01-30T02:25:19;101341.88;;;22.64;54.46
78573;BME280;67862;0.000;0.000;2024-01-30T02:27:45;101339.13;;;22.64;54.84
78573;BME280;67862;0.000;0.000;2024-01-30T02:30:10;101340.22;;;22.63;55.04
78573;BME280;67862;0.000;0.000;2024-01-30T02:32:36;101333.91;;;22.62;54.49
78573;BME280;67862;0.000;0.000;2024-01-30T02:35:01;101337.72;;;22.61;54.61
78573;BME280;67862;0.000;0.000;2024-01-30T02:37:27;101337.72;;;22.61;54.85
78573;BME280;67862;0.000;0.000;2024-01-30T02:39:52;101335.81;;;22.62;54.93
78573;BME280;67862;0.000;0.000;2024-01-30T02:42:17;101339.63;;;22.61;55.15
78573;BME280;67862;0.000;0.000;2024-01-30T02:44:43;101336.63;;;22.62;54.82
78573;BME280;67862;0.000;0.000;2024-01-30T02:47:08;101344.84;;;22.62;54.87
78573;BME280;67862;0.000;0.000;2024-01-30T02:49:33;101345.69;;;22.63;55.08
78573;BME280;67862;0.000;0.000;2024-01-30T02:51:59;101339.38;;;22.62;55.00
78573;BME280;67862;0.000;0.000;2024-01-30T02:54:24;101341.88;;;22.64;55.34
78573;BME280;67862;0.000;0.000;2024-01-30T02:56:49;101338.53;;;22.62;55.46
78573;BME280;67862;0.000;0.000;2024-01-30T02:59:15;101340.22;;;22.63;55.40
78573;BME280;67862;0.000;0.000;2024-01-30T03:01:44;101336.63;;;22.62;55.42
78573;BME280;67862;0.000;0.000;2024-01-30T03:04:09;101345.69;;;22.63;55.62
78573;BME280;67862;0.000;0.000;2024-01-30T03:06:35;101339.38;;;22.62;55.71
78573;BME280;67862;0.000;0.000;2024-01-30T03:09:00;101342.94;;;22.63;55.36
78573;BME280;67862;0.000;0.000;2024-01-30T03:11:26;101340.22;;;22.63;56.01
78573;BME280;67862;0.000;0.000;2024-01-30T03:13:51;101339.38;;;22.62;55.97
78573;BME280;67862;0.000;0.000;2024-01-30T03:16:16;101331.16;;;22.62;55.60
78573;BME280;67862;0.000;0.000;2024-01-30T03:18:42;101331.16;;;22.62;55.97
78573;BME280;67862;0.000;0.000;2024-01-30T03:21:07;101332.81;;;22.63;55.73
78573;BME280;67862;0.000;0.000;2024-01-30T03:23:32;101327.59;;;22.62;55.89
78573;BME280;67862;0.000;0.000;2024-01-30T03:25:58;101327.34;;;22.63;56.05
78573;BME280;67862;0.000;0.000;2024-01-30T03:28:23;101323.78;;;22.63;56.05
78573;BME280;67862;0.000;0.000;2024-01-30T03:30:49;101320.53;;;22.66;55.83
78573;BME280;67862;0.000;0.000;2024-01-30T03:33:14;101324.09;;;22.66;55.57
78573;BME280;67862;0.000;0.000;2024-01-30T03:35:39;101324.94;;;22.67;55.70
78573;BME280;67862;0.000;0.000;2024-01-30T03:38:05;101324.94;;;22.67;55.60
78573;BME280;67862;0.000;0.000;2024-01-30T03:40:30;101323.84;;;22.68;55.43
78573;BME280;67862;0.000;0.000;2024-01-30T03:42:55;101327.44;;;22.68;55.14
78573;BME280;67862;0.000;0.000;2024-01-30T03:45:21;101325.53;;;22.69;55.33
78573;BME280;67862;0.000;0.000;2024-01-30T03:47:46;101328.28;;;22.69;55.17
78573;BME280;67862;0.000;0.000;2024-01-30T03:50:12;101313.75;;;22.68;54.84
78573;BME280;67862;0.000;0.000;2024-01-30T03:52:37;101320.06;;;22.69;54.44
78573;BME280;67862;0.000;0.000;2024-01-30T03:55:02;101316.25;;;22.70;54.39
78573;BME280;67862;0.000;0.000;2024-01-30T03:57:31;101320.06;;;22.69;54.83
78573;BME280;67862;0.000;0.000;2024-01-30T03:59:56;101321.13;;;22.68;54.59
78573;BME280;67862;0.000;0.000;2024-01-30T04:02:21;101310.41;;;22.66;55.06
78573;BME280;67862;0.000;0.000;2024-01-30T04:04:47;101316.16;;;22.65;54.56
78573;BME280;67862;0.000;0.000;2024-01-30T04:07:12;101313.66;;;22.63;54.75
78573;BME280;67862;0.000;0.000;2024-01-30T04:09:38;101312.84;;;22.63;54.69
78573;BME280;67862;0.000;0.000;2024-01-30T04:12:03;101317.22;;;22.64;54.71
78573;BME280;67862;0.000;0.000;2024-01-30T04:14:28;101319.13;;;22.63;54.57
78573;BME280;67862;0.000;0.000;2024-01-30T04:16:54;101318.31;;;22.63;54.93
78573;BME280;67862;0.000;0.000;2024-01-30T04:19:19;101310.34;;;22.61;55.18
78573;BME280;67862;0.000;0.000;2024-01-30T04:21:45;101311.19;;;22.62;55.08
78573;BME280;67862;0.000;0.000;2024-01-30T04:24:10;101309.25;;;22.62;54.84
78573;BME280;67862;0.000;0.000;2024-01-30T04:26:35;101298.56;;;22.61;54.76
78573;BME280;67862;0.000;0.000;2024-01-30T04:29:03;101313.91;;;22.62;54.90
78573;BME280;67862;0.000;0.000;2024-01-30T04:31:28;101302.13;;;22.61;55.21
78573;BME280;67862;0.000;0.000;2024-01-30T04:33:54;101309.53;;;22.61;54.75
78573;BME280;67862;0.000;0.000;2024-01-30T04:36:19;101307.84;;;22.60;54.99
78573;BME280;67862;0.000;0.000;2024-01-30T04:38:44;101296.09;;;22.59;54.77
78573;BME280;67862;0.000;0.000;2024-01-30T04:41:10;101307.03;;;22.59;54.68
78573;BME280;67862;0.000;0.000;2024-01-30T04:43:35;101304.50;;;22.57;55.13
78573;BME280;67862;0.000;0.000;2024-01-30T04:46:01;101311.69;;;22.59;54.94
78573;BME280;67862;0.000;0.000;2024-01-30T04:48:26;101306.41;;;22.57;54.88
78573;BME280;67862;0.000;0.000;2024-01-30T04:50:52;101315.47;;;22.57;55.04
78573;BME280;67862;0.000;0.000;2024-01-30T04:53:17;101310.00;;;22.57;54.88
78573;BME280;67862;0.000;0.000;2024-01-30T04:55:42;101318.44;;;22.56;54.70
78573;BME280;67862;0.000;0.000;2024-01-30T04:58:08;101319.28;;;22.56;54.90
78573;BME280;67862;0.000;0.000;2024-01-30T05:00:33;101312.16;;;22.55;54.70
78573;BME280;67862;0.000;0.000;2024-01-30T05:02:58;101315.13;;;22.54;54.44
78573;BME280;67862;0.000;0.000;2024-01-30T05:05:24;101314.31;;;22.53;54.85
78573;BME280;67862;0.000;0.000;2024-01-30T05:07:49;101318.13;;;22.52;54.41
78573;BME280;67862;0.000;0.000;2024-01-30T05:10:15;101314.56;;;22.52;54.61
78573;BME280;67862;0.000;0.000;2024-01-30T05:12:40;101318.38;;;22.51;54.36
78573;BME280;67862;0.000;0.000;2024-01-30T05:15:06;101328.00;;;22.53;54.85
78573;BME280;67862;0.000;0.000;2024-01-30T05:17:31;101326.09;;;22.54;54.57
78573;BME280;67862;0.000;0.000;2024-01-30T05:19:57;101326.09;;;22.54;54.47
78573;BME280;67862;0.000;0.000;2024-01-30T05:22:22;101329.91;;;22.53;54.94
78573;BME280;67862;0.000;0.000;2024-01-30T05:24:47;101330.72;;;22.53;54.81
78573;BME280;67862;0.000;0.000;2024-01-30T05:27:13;101332.88;;;22.51;54.86
78573;BME280;67862;0.000;0.000;2024-01-30T05:29:41;101326.59;;;22.51;54.69
78573;BME280;67862;0.000;0.000;2024-01-30T05:32:06;101330.16;;;22.51;54.95
78573;BME280;67862;0.000;0.000;2024-01-30T05:34:32;101335.06;;;22.49;54.94
78573;BME280;67862;0.000;0.000;2024-01-30T05:36:58;101344.91;;;22.50;54.57
78573;BME280;67862;0.000;0.000;2024-01-30T05:39:23;101348.94;;;22.48;54.96
78573;BME280;67862;0.000;0.000;2024-01-30T05:41:48;101348.38;;;22.46;54.53
78573;BME280;67862;0.000;0.000;2024-01-30T05:44:14;101352.78;;;22.47;54.52
78573;BME280;67862;0.000;0.000;2024-01-30T05:46:39;101348.38;;;22.46;54.76
78573;BME280;67862;0.000;0.000;2024-01-30T05:49:05;101340.16;;;22.46;54.83
78573;BME280;67862;0.000;0.000;2024-01-30T05:51:31;101345.88;;;22.44;54.81
78573;BME280;67862;0.000;0.000;2024-01-30T05:53:56;101351.94;;;22.46;54.83
78573;BME280;67862;0.000;0.000;2024-01-30T05:56:21;101343.97;;;22.45;54.56
78573;BME280;67862;0.000;0.000;2024-01-30T05:58:47;101345.88;;;22.44;54.55
78573;BME280;67862;0.000;0.000;2024-01-30T06:01:12;101348.13;;;22.47;54.45
78573;BME280;67862;0.000;0.000;2024-01-30T06:03:38;101350.66;;;22.49;54.33
78573;BME280;67862;0.000;0.000;2024-01-30T06:06:04;101353.13;;;22.50;54.67
78573;BME280;67862;0.000;0.000;2024-01-30T06:08:29;101353.28;;;22.44;54.41
78573;BME280;67862;0.000;0.000;2024-01-30T06:10:54;101349.13;;;22.41;54.64
78573;BME280;67862;0.000;0.000;2024-01-30T06:13:20;101359.50;;;22.39;54.26
78573;BME280;67862;0.000;0.000;2024-01-30T06:15:45;101358.06;;;22.37;54.26
78573;BME280;67862;0.000;0.000;2024-01-30T06:18:11;101359.72;;;22.38;54.16
78573;BME280;67862;0.000;0.000;2024-01-30T06:20:36;101362.69;;;22.36;54.22
78573;BME280;67862;0.000;0.000;2024-01-30T06:23:01;101356.38;;;22.36;54.09
78573;BME280;67862;0.000;0.000;2024-01-30T06:25:30;101364.25;;;22.32;53.78
78573;BME280;67862;0.000;0.000;2024-01-30T06:27:55;101363.69;;;22.30;53.92
78573;BME280;67862;0.000;0.000;2024-01-30T06:30:20;101361.16;;;22.28;54.03
78573;BME280;67862;0.000;0.000;2024-01-30T06:32:46;101355.94;;;22.27;52.69
78573;BME280;67862;0.000;0.000;2024-01-30T06:35:11;101355.03;;;22.21;51.85
78573;BME280;67862;0.000;0.000;2024-01-30T06:37:37;101357.41;;;22.18;51.03
78573;BME280;67862;0.000;0.000;2024-01-30T06:40:03;101358.97;;;22.14;50.47
78573;BME280;67862;0.000;0.000;2024-01-30T06:42:30;101351.59;;;22.03;46.89
78573;BME280;67862;0.000;0.000;2024-01-30T06:44:56;101350.78;;;22.02;48.39
78573;BME280;67862;0.000;0.000;2024-01-30T06:47:21;101355.88;;;21.98;47.96
78573;BME280;67862;0.000;0.000;2024-01-30T06:49:46;101365.41;;;21.96;47.82
78573;BME280;67862;0.000;0.000;2024-01-30T06:52:12;101364.44;;;21.90;45.86
78573;BME280;67862;0.000;0.000;2024-01-30T06:54:37;101352.25;;;21.81;42.14
78573;BME280;67862;0.000;0.000;2024-01-30T06:57:02;101351.38;;;21.81;45.13
78573;BME280;67862;0.000;0.000;2024-01-30T06:59:28;101346.16;;;21.79;45.23
78573;BME280;67862;0.000;0.000;2024-01-30T07:01:54;101359.50;;;21.76;45.64
78573;BME280;67862;0.000;0.000;2024-01-30T07:04:19;101352.13;;;21.76;46.65
78573;BME280;67862;0.000;0.000;2024-01-30T07:06:45;101355.69;;;21.77;47.09
78573;BME280;67862;0.000;0.000;2024-01-30T07:09:12;101361.41;;;21.75;47.22
78573;BME280;67862;0.000;0.000;2024-01-30T07:11:38;101362.47;;;21.74;47.51
78573;BME280;67862;0.000;0.000;2024-01-30T07:14:20;101363.56;;;21.73;47.90
78573;BME280;67862;0.000;0.000;2024-01-30T07:16:46;101361.66;;;21.74;47.99
78573;BME280;67862;0.000;0.000;2024-01-30T07:19:11;101370.91;;;21.73;48.50
78573;BME280;67862;0.000;0.000;2024-01-30T07:21:36;101368.41;;;21.71;48.74
78573;BME280;67862;0.000;0.000;2024-01-30T07:24:02;101372.81;;;21.72;48.73
78573;BME280;67862;0.000;0.000;2024-01-30T07:26:27;101367.34;;;21.72;48.97
78573;BME280;67862;0.000;0.000;2024-01-30T07:28:53;101364.00;;;21.70;48.97
78573;BME280;67862;0.000;0.000;2024-01-30T07:31:18;101366.75;;;21.70;49.65
78573;BME280;67862;0.000;0.000;2024-01-30T07:33:46;101367.56;;;21.70;49.63
78573;BME280;67862;0.000;0.000;2024-01-30T07:36:12;101363.19;;;21.69;49.96
78573;BME280;67862;0.000;0.000;2024-01-30T07:38:37;101365.06;;;21.69;50.09
78573;BME280;67862;0.000;0.000;2024-01-30T07:41:05;101366.97;;;21.68;50.26
78573;BME280;67862;0.000;0.000;2024-01-30T07:43:30;101367.81;;;21.69;49.94
78573;BME280;67862;0.000;0.000;2024-01-30T07:45:55;101366.97;;;21.68;50.51
78573;BME280;67862;0.000;0.000;2024-01-30T07:48:21;101356.06;;;21.68;50.26
78573;BME280;67862;0.000;0.000;2024-01-30T07:50:46;101360.69;;;21.68;50.37
78573;BME280;67862;0.000;0.000;2024-01-30T07:53:12;101360.69;;;21.68;50.18
78573;BME280;67862;0.000;0.000;2024-01-30T07:55:37;101357.72;;;21.69;50.23
78573;BME280;67862;0.000;0.000;2024-01-30T07:58:04;101355.22;;;21.68;50.67
78573;BME280;67862;0.000;0.000;2024-01-30T08:00:30;101356.88;;;21.69;50.46
78573;BME280;67862;0.000;0.000;2024-01-30T08:02:56;101359.63;;;21.69;50.49
78573;BME280;67862;0.000;0.000;2024-01-30T08:05:22;101363.19;;;21.69;50.32
78573;BME280;67862;0.000;0.000;2024-01-30T08:07:49;101359.63;;;21.69;50.67
78573;BME280;67862;0.000;0.000;2024-01-30T08:10:16;101361.50;;;21.68;50.55
78573;BME280;67862;0.000;0.000;2024-01-30T08:12:44;101361.50;;;21.68;50.35
78573;BME280;67862;0.000;0.000;2024-01-30T08:15:11;101364.25;;;21.68;50.59
78573;BME280;67862;0.000;0.000;2024-01-30T08:17:37;101364.84;;;21.70;50.67
78573;BME280;67862;0.000;0.000;2024-01-30T08:20:03;101359.63;;;21.69;50.37
78573;BME280;67862;0.000;0.000;2024-01-30T08:22:30;101366.75;;;21.70;50.20
78573;BME280;67862;0.000;0.000;2024-01-30T08:24:56;101366.75;;;21.70;50.16
78573;BME280;67862;0.000;0.000;2024-01-30T08:27:22;101367.56;;;21.70;50.44
78573;BME280;67862;0.000;0.000;2024-01-30T08:29:47;101370.31;;;21.70;50.16
78573;BME280;67862;0.000;0.000;2024-01-30T08:32:12;101373.88;;;21.71;50.05
78573;BME280;67862;0.000;0.000;2024-01-30T08:34:38;101370.31;;;21.70;50.15
78573;BME280;67862;0.000;0.000;2024-01-30T08:37:04;101374.72;;;21.71;50.51
78573;BME280;67862;0.000;0.000;2024-01-30T08:39:29;101367.34;;;21.72;50.29
78573;BME280;67862;0.000;0.000;2024-01-30T08:41:56;101377.22;;;21.73;50.54
78573;BME280;67862;0.000;0.000;2024-01-30T08:44:23;101380.78;;;21.74;50.03
78573;BME280;67862;0.000;0.000;2024-01-30T08:46:48;101381.63;;;21.74;50.44
78573;BME280;67862;0.000;0.000;2024-01-30T08:49:19;101382.44;;;21.75;50.11
78573;BME280;67862;0.000;0.000;2024-01-30T08:51:47;101375.06;;;21.75;50.20
78573;BME280;67862;0.000;0.000;2024-01-30T08:54:12;101386.59;;;21.77;50.14
78573;BME280;67862;0.000;0.000;2024-01-30T08:56:38;101381.94;;;21.78;50.10
78573;BME280;67862;0.000;0.000;2024-01-30T08:59:03;101378.97;;;21.79;50.13
78573;BME280;67862;0.000;0.000;2024-01-30T09:01:29;101377.69;;;21.82;50.11
78573;BME280;67862;0.000;0.000;2024-01-30T09:03:54;101375.78;;;21.82;50.24
78573;BME280;67862;0.000;0.000;2024-01-30T09:06:19;101380.75;;;21.85;50.36
78573;BME280;67862;0.000;0.000;2024-01-30T09:08:45;101383.50;;;21.85;50.24
78573;BME280;67862;0.000;0.000;2024-01-30T09:11:14;101374.22;;;21.86;50.25
78573;BME280;67862;0.000;0.000;2024-01-30T09:13:39;101376.72;;;21.88;50.13
78573;BME280;67862;0.000;0.000;2024-01-30T09:18:34;101371.00;;;21.89;50.13
78573;BME280;67862;0.000;0.000;2024-01-30T09:20:59;101372.66;;;21.90;50.28
78573;BME280;67862;0.000;0.000;2024-01-30T09:23:24;101368.88;;;21.91;50.00
78573;BME280;67862;0.000;0.000;2024-01-30T09:25:50;101362.34;;;21.92;50.31
78573;BME280;67862;0.000;0.000;2024-01-30T09:28:17;101365.66;;;21.94;50.31
78573;BME280;67862;0.000;0.000;2024-01-30T09:30:42;101367.06;;;21.97;50.08
78573;BME280;67862;0.000;0.000;2024-01-30T09:33:08;101370.63;;;21.97;50.07
78573;BME280;67862;0.000;0.000;2024-01-30T09:35:33;101374.78;;;22.00;50.11
78573;BME280;67862;0.000;0.000;2024-01-30T09:37:59;101364.69;;;22.00;50.34
78573;BME280;67862;0.000;0.000;2024-01-30T09:40:25;101360.63;;;22.03;50.00
78573;BME280;67862;0.000;0.000;2024-01-30T09:42:50;101368.59;;;22.05;50.31
78573;BME280;67862;0.000;0.000;2024-01-30T09:45:19;101369.22;;;22.07;50.32
78573;BME280;67862;0.000;0.000;2024-01-30T09:47:45;101368.97;;;22.08;49.90
78573;BME280;67862;0.000;0.000;2024-01-30T09:50:12;101363.25;;;22.10;50.23
78573;BME280;67862;0.000;0.000;2024-01-30T09:52:37;101368.50;;;22.11;50.15
78573;BME280;67862;0.000;0.000;2024-01-30T09:55:03;101371.00;;;22.13;50.18
78573;BME280;67862;0.000;0.000;2024-01-30T09:57:30;101367.19;;;22.14;50.27
78573;BME280;67862;0.000;0.000;2024-01-30T09:59:56;101373.22;;;22.16;50.05
78573;BME280;67862;0.000;0.000;2024-01-30T10:02:21;101376.56;;;22.18;49.78
78573;BME280;67862;0.000;0.000;2024-01-30T10:04:50;101379.91;;;22.20;50.09
78573;BME280;67862;0.000;0.000;2024-01-30T10:07:16;101379.41;;;22.23;49.80
78573;BME280;67862;0.000;0.000;2024-01-30T10:09:42;101379.41;;;22.23;49.86
78573;BME280;67862;0.000;0.000;2024-01-30T10:12:07;101378.06;;;22.25;50.05
78573;BME280;67862;0.000;0.000;2024-01-30T10:14:33;101371.78;;;22.25;49.66
78573;BME280;67862;0.000;0.000;2024-01-30T10:16:59;101368.78;;;22.26;49.59
78573;BME280;67862;0.000;0.000;2024-01-30T10:19:24;101366.63;;;22.28;50.11
78573;BME280;67862;0.000;0.000;2024-01-30T10:21:54;101379.28;;;22.30;50.02
78573;BME280;67862;0.000;0.000;2024-01-30T10:24:24;101370.81;;;22.31;49.74
78573;BME280;67862;0.000;0.000;2024-01-30T10:26:50;101368.09;;;22.31;49.80
78573;BME280;67862;0.000;0.000;2024-01-30T10:29:16;101365.34;;;22.31;49.64
78573;BME280;67862;0.000;0.000;2024-01-30T10:31:41;101358.78;;;22.32;49.62
78573;BME280;67862;0.000;0.000;2024-01-30T10:34:07;101359.38;;;22.34;49.66
78573;BME280;67862;0.000;0.000;2024-01-30T10:36:32;101360.22;;;22.35;49.73
78573;BME280;67862;0.000;0.000;2024-01-30T10:39:00;101350.91;;;22.36;49.82
78573;BME280;67862;0.000;0.000;2024-01-30T10:41:26;101347.94;;;22.37;49.91
78573;BME280;67862;0.000;0.000;2024-01-30T10:43:58;101343.91;;;22.40;49.47
78573;BME280;67862;0.000;0.000;2024-01-30T10:46:30;101342.56;;;22.42;49.75
78573;BME280;67862;0.000;0.000;2024-01-30T10:48:59;101341.50;;;22.43;49.68
78573;BME280;67862;0.000;0.000;2024-01-30T10:51:26;101340.41;;;22.44;49.47
78573;BME280;67862;0.000;0.000;2024-01-30T10:53:51;101333.03;;;22.45;49.62
78573;BME280;67862;0.000;0.000;2024-01-30T10:56:18;101335.50;;;22.46;49.60
78573;BME280;67862;0.000;0.000;2024-01-30T10:58:45;101326.00;;;22.49;49.67
78573;BME280;67862;0.000;0.000;2024-01-30T11:01:12;101330.72;;;22.53;49.28
78573;BME280;67862;0.000;0.000;2024-01-30T11:03:38;101326.72;;;22.44;49.44
78573;BME280;67862;0.000;0.000;2024-01-30T11:06:03;101327.56;;;22.45;49.73
78573;BME280;67862;0.000;0.000;2024-01-30T11:08:31;101321.84;;;22.46;49.31
78573;BME280;67862;0.000;0.000;2024-01-30T11:10:57;101317.63;;;22.55;49.50
78573;BME280;67862;0.000;0.000;2024-01-30T11:13:27;101319.78;;;22.53;49.50
78573;BME280;67862;0.000;0.000;2024-01-30T11:15:52;101322.78;;;22.52;49.46
78573;BME280;67862;0.000;0.000;2024-01-30T11:18:30;101315.47;;;22.57;49.44
78573;BME280;67862;0.000;0.000;2024-01-30T11:20:56;101317.72;;;22.61;49.13
78573;BME280;67862;0.000;0.000;2024-01-30T11:23:23;101317.47;;;22.62;49.39
78573;BME280;67862;0.000;0.000;2024-01-30T11:25:48;101307.59;;;22.61;49.38
78573;BME280;67862;0.000;0.000;2024-01-30T11:28:14;101308.19;;;22.63;49.17
78573;BME280;67862;0.000;0.000;2024-01-30T11:30:40;101308.19;;;22.63;48.99
78573;BME280;67862;0.000;0.000;2024-01-30T11:33:12;101303.53;;;22.64;49.16
78573;BME280;67862;0.000;0.000;2024-01-30T11:35:39;101302.47;;;22.65;48.89
78573;BME280;67862;0.000;0.000;2024-01-30T11:38:05;101297.81;;;22.65;48.98
78573;BME280;67862;0.000;0.000;2024-01-30T11:40:31;101296.16;;;22.64;48.95
78573;BME280;67862;0.000;0.000;2024-01-30T11:42:59;101302.47;;;22.65;48.64
78573;BME280;67862;0.000;0.000;2024-01-30T11:45:25;101294.00;;;22.66;48.94
78573;BME280;67862;0.000;0.000;2024-01-30T11:47:51;101284.13;;;22.65;49.05
78573;BME280;67862;0.000;0.000;2024-01-30T11:50:17;101289.34;;;22.67;48.52
78573;BME280;67862;0.000;0.000;2024-01-30T11:52:43;101285.78;;;22.66;48.39
78573;BME280;67862;0.000;0.000;2024-01-30T11:55:10;101283.28;;;22.65;48.75
78573;BME280;67862;0.000;0.000;2024-01-30T11:57:37;101284.63;;;22.62;48.92
78573;BME280;67862;0.000;0.000;2024-01-30T12:00:05;101280.81;;;22.63;48.78
78573;BME280;67862;0.000;0.000;2024-01-30T12:02:39;101276.47;;;22.67;48.90
78573;BME280;67862;0.000;0.000;2024-01-30T12:05:08;101269.34;;;22.66;48.87
78573;BME280;67862;0.000;0.000;2024-01-30T12:07:34;101261.41;;;22.65;48.79
78573;BME280;67862;0.000;0.000;2024-01-30T12:10:01;101263.06;;;22.66;48.64
78573;BME280;67862;0.000;0.000;2024-01-30T12:12:28;101265.22;;;22.64;48.93
78573;BME280;67862;0.000;0.000;2024-01-30T12:14:53;101260.88;;;22.68;48.70
78573;BME280;67862;0.000;0.000;2024-01-30T12:17:37;101246.16;;;22.69;48.60
78573;BME280;67862;0.000;0.000;2024-01-30T12:20:09;101251.38;;;22.70;48.62
78573;BME280;67862;0.000;0.000;2024-01-30T12:22:38;101246.16;;;22.69;48.84
78573;BME280;67862;0.000;0.000;2024-01-30T12:25:09;101237.94;;;22.69;48.79
78573;BME280;67862;0.000;0.000;2024-01-30T12:27:36;101243.97;;;22.71;48.82
78573;BME280;67862;0.000;0.000;2024-01-30T12:30:06;101244.22;;;22.69;48.49
78573;BME280;67862;0.000;0.000;2024-01-30T12:32:34;101238.50;;;22.71;48.87
78573;BME280;67862;0.000;0.000;2024-01-30T12:35:02;101241.00;;;22.72;48.60
78573;BME280;67862;0.000;0.000;2024-01-30T12:37:29;101230.88;;;22.73;48.80
78573;BME280;67862;0.000;0.000;2024-01-30T12:39:55;101237.16;;;22.73;48.71
78573;BME280;67862;0.000;0.000;2024-01-30T12:42:21;101236.84;;;22.70;49.03
78573;BME280;67862;0.000;0.000;2024-01-30T12:44:48;101232.47;;;22.69;48.83
78573;BME280;67862;0.000;0.000;2024-01-30T12:47:13;101226.22;;;22.73;48.99
78573;BME280;67862;0.000;0.000;2024-01-30T12:49:42;101227.03;;;22.74;49.03
78573;BME280;67862;0.000;0.000;2024-01-30T12:52:10;101221.56;;;22.74;49.00
78573;BME280;67862;0.000;0.000;2024-01-30T12:54:37;101226.78;;;22.75;48.97
78573;BME280;67862;0.000;0.000;2024-01-30T12:57:03;101223.22;;;22.75;48.85